createdAt,value
2023-03-29T08:05:01.828Z,11.6
2023-03-29T08:25:01.831Z,60.2
2023-03-29T08:35:07.147Z,51.3
2023-03-29T08:40:01.739Z,51.1
2023-03-29T09:05:01.428Z,36.2
2023-03-29T09:10:01.592Z,18.1
2023-03-29T09:15:01.387Z,14.5
2023-03-29T09:20:01.279Z,14.1
2023-03-29T09:35:01.804Z,63.0
2023-03-29T09:40:05.186Z,56.7
2023-03-29T09:50:01.728Z,58.7
2023-03-29T09:55:07.076Z,46.9
2023-03-29T10:00:01.740Z,45.9
2023-03-29T10:05:01.949Z,46.5
2023-03-29T10:10:01.802Z,44.7
2023-03-29T10:20:09.619Z,55.9
2023-03-29T10:25:05.116Z,55.8
2023-03-29T10:30:01.846Z,51.2
2023-03-29T10:35:02.079Z,45.9
2023-03-29T10:55:01.839Z,85.6
2023-03-29T11:00:01.539Z,82.7
2023-03-29T11:05:01.642Z,77.8
2023-03-29T11:10:01.790Z,77.5
2023-03-29T11:25:01.072Z,112.6
2023-03-29T11:50:01.295Z,46.1
2023-03-29T12:05:01.859Z,91.4
2023-03-29T12:10:01.620Z,91.2
2023-03-29T12:20:02.728Z,116.9
2023-03-29T12:25:05.428Z,124.7
2023-03-29T12:30:06.571Z,135.2
2023-03-29T12:45:01.148Z,135.8
2023-03-29T12:50:01.019Z,155.1
2023-03-29T12:55:01.387Z,152.2
2023-03-29T13:00:01.048Z,150.1
2023-03-29T13:20:01.458Z,110.5
2023-03-29T13:35:01.894Z,90.0
2023-03-29T13:40:01.804Z,92.6
2023-03-29T13:55:01.378Z,91.0
2023-03-29T14:00:01.696Z,86.1
2023-03-29T14:05:01.315Z,88.7
2023-03-29T14:10:01.501Z,90.5
2023-03-29T14:15:01.350Z,91.6
2023-03-29T14:20:01.231Z,95.6
2023-03-29T14:25:01.426Z,101.2
2023-03-29T14:30:01.505Z,101.0
2023-03-29T14:35:02.406Z,96.0
2023-03-29T14:40:01.165Z,93.0
2023-03-29T14:45:01.372Z,86.7
2023-03-29T14:50:02.279Z,81.6
2023-03-29T14:55:01.704Z,78.8
2023-03-29T15:00:01.677Z,83.8
2023-03-29T15:05:01.742Z,86.7
2023-03-29T15:10:01.380Z,91.4
2023-03-29T15:15:01.474Z,81.4
2023-03-29T15:20:01.308Z,85.9
2023-03-29T15:25:01.252Z,88.3
2023-03-29T15:30:01.567Z,91.1
2023-03-29T15:35:02.497Z,89.5
2023-03-29T15:40:01.143Z,100.6
2023-03-29T15:45:01.284Z,101.9
2023-03-29T15:50:01.209Z,99.2
2023-03-29T15:55:02.076Z,94.8
2023-03-29T16:00:01.153Z,97.8
2023-03-29T16:05:01.413Z,101.2
2023-03-29T16:10:01.227Z,99.2
2023-03-29T16:15:01.318Z,99.0
2023-03-29T16:20:01.228Z,101.4
2023-03-29T16:25:01.579Z,104.0
2023-03-29T16:30:01.493Z,102.5
2023-03-29T16:35:01.777Z,102.0
2023-03-29T16:55:02.518Z,100.4
2023-03-29T17:00:01.769Z,102.4
2023-03-29T17:05:06.905Z,103.1
2023-03-29T17:10:01.775Z,103.7
2023-03-29T17:15:02.139Z,98.8
2023-03-29T17:20:01.771Z,95.2
2023-03-29T17:25:01.867Z,91.0
2023-03-29T17:30:01.753Z,86.8
2023-03-29T17:35:02.417Z,80.5
2023-03-29T17:40:01.801Z,81.3
2023-03-29T17:45:01.833Z,84.8
2023-03-29T17:50:01.812Z,91.0
2023-03-29T17:55:02.244Z,99.3
2023-03-29T18:00:01.756Z,102.4
2023-03-29T18:05:02.301Z,104.6
2023-03-29T18:10:01.821Z,104.6
2023-03-29T18:15:01.870Z,98.2
2023-03-29T18:20:02.344Z,90.3
2023-03-29T18:25:01.830Z,86.7
2023-03-29T18:30:07.105Z,82.1
2023-03-29T18:35:01.825Z,76.7
2023-03-29T18:40:01.792Z,84.5
2023-03-29T18:45:01.720Z,84.8
2023-03-29T18:50:02.202Z,87.6
2023-03-29T18:55:02.125Z,89.8
2023-03-29T19:00:01.673Z,91.4
2023-03-29T19:05:01.731Z,83.8
2023-03-29T19:10:01.705Z,83.7
2023-03-29T19:15:01.747Z,85.3
2023-03-29T19:20:06.828Z,86.1
2023-03-29T19:25:02.742Z,87.0
2023-03-29T19:30:01.706Z,88.0
2023-03-29T19:35:01.785Z,89.4
2023-03-29T19:40:01.646Z,85.6
2023-03-29T19:45:01.724Z,83.7
2023-03-29T19:50:06.663Z,87.4
2023-03-29T19:55:01.688Z,85.6
2023-03-29T20:00:01.668Z,82.3
2023-03-29T20:05:01.914Z,82.8
2023-03-29T20:10:01.673Z,83.1
2023-03-29T20:15:01.761Z,77.6
2023-03-29T20:20:01.700Z,77.6
2023-03-29T20:25:01.727Z,78.8
2023-03-29T20:30:01.736Z,80.1
2023-03-29T20:35:01.756Z,90.0
2023-03-29T20:40:01.710Z,91.6
2023-03-29T20:45:07.085Z,93.8
2023-03-29T20:50:01.627Z,91.0
2023-03-29T21:00:01.784Z,80.6
2023-03-29T21:05:01.769Z,78.8
2023-03-29T21:10:01.908Z,77.2
2023-03-29T21:15:06.725Z,79.5
2023-03-29T21:20:01.652Z,78.5
2023-03-29T21:25:01.863Z,81.1
2023-03-29T21:30:01.672Z,85.4
2023-03-29T21:35:01.791Z,87.6
2023-03-29T21:40:01.656Z,90.0
2023-03-29T21:45:01.801Z,95.4
2023-03-29T21:50:01.669Z,99.8
2023-03-29T21:55:01.749Z,97.6
2023-03-29T22:00:01.661Z,94.4
2023-03-29T22:05:01.868Z,91.6
2023-03-29T22:10:01.878Z,87.2
2023-03-29T22:15:01.696Z,80.6
2023-03-29T22:20:01.589Z,79.4
2023-03-29T22:25:02.531Z,79.1
2023-03-29T22:30:07.571Z,78.8
2023-03-29T22:35:01.818Z,79.8
2023-03-29T22:40:01.584Z,81.6
2023-03-29T22:45:01.753Z,83.7
2023-03-29T22:50:01.607Z,86.5
2023-03-29T22:55:01.683Z,89.2
2023-03-29T23:00:01.535Z,91.8
2023-03-29T23:05:01.765Z,94.7
2023-03-29T23:10:01.675Z,91.9
2023-03-29T23:15:02.259Z,95.9
2023-03-29T23:20:02.642Z,93.0
2023-03-29T23:25:01.772Z,88.3
2023-03-29T23:30:01.667Z,84.1
2023-03-29T23:35:01.702Z,86.0
2023-03-29T23:40:01.722Z,80.3
2023-03-29T23:45:01.777Z,80.6
2023-03-29T23:50:01.785Z,81.8
2023-03-29T23:55:02.545Z,82.3
